sensor_id;sensor_type;location;lat;lon;timestamp;P1;durP1;ratioP1;P2;durP2;ratioP2
11986;SDS011;6053;51.382;6.768;2024-02-26T00:01:50;1.83;;;1.83;;
11986;SDS011;6053;51.382;6.768;2024-02-26T00:04:18;1.80;;;1.80;;
11986;SDS011;6053;51.382;6.768;2024-02-26T00:06:52;2.35;;;2.25;;
11986;SDS011;6053;51.382;6.768;2024-02-26T00:09:21;2.25;;;2.17;;
11986;SDS011;6053;51.382;6.768;2024-02-26T00:12:04;2.10;;;2.00;;
11986;SDS011;6053;51.382;6.768;2024-02-26T00:14:33;1.67;;;1.67;;
11986;SDS011;6053;51.382;6.768;2024-02-26T00:17:05;1.53;;;1.53;;
11986;SDS011;6053;51.382;6.768;2024-02-26T00:19:35;1.75;;;1.75;;
11986;SDS011;6053;51.382;6.768;2024-02-26T00:22:05;1.70;;;1.70;;
11986;SDS011;6053;51.382;6.768;2024-02-26T00:24:33;1.90;;;1.80;;
11986;SDS011;6053;51.382;6.768;2024-02-26T00:27:04;1.88;;;1.88;;
11986;SDS011;6053;51.382;6.768;2024-02-26T00:29:33;2.20;;;2.10;;
11986;SDS011;6053;51.382;6.768;2024-02-26T00:32:04;1.95;;;1.85;;
11986;SDS011;6053;51.382;6.768;2024-02-26T00:34:33;1.90;;;1.83;;
11986;SDS011;6053;51.382;6.768;2024-02-26T00:37:07;1.67;;;1.67;;
11986;SDS011;6053;51.382;6.768;2024-02-26T00:39:35;1.80;;;1.80;;
11986;SDS011;6053;51.382;6.768;2024-02-26T00:42:16;1.95;;;1.85;;
11986;SDS011;6053;51.382;6.768;2024-02-26T00:44:44;1.70;;;1.70;;
11986;SDS011;6053;51.382;6.768;2024-02-26T00:47:12;2.10;;;2.00;;
11986;SDS011;6053;51.382;6.768;2024-02-26T00:49:41;1.73;;;1.73;;
11986;SDS011;6053;51.382;6.768;2024-02-26T00:52:11;1.77;;;1.77;;
11986;SDS011;6053;51.382;6.768;2024-02-26T00:54:39;2.00;;;1.90;;
11986;SDS011;6053;51.382;6.768;2024-02-26T00:57:08;1.80;;;1.80;;
11986;SDS011;6053;51.382;6.768;2024-02-26T00:59:36;1.90;;;1.80;;
11986;SDS011;6053;51.382;6.768;2024-02-26T01:02:05;2.40;;;2.20;;
11986;SDS011;6053;51.382;6.768;2024-02-26T01:04:33;1.50;;;1.50;;
11986;SDS011;6053;51.382;6.768;2024-02-26T01:07:05;1.75;;;1.75;;
11986;SDS011;6053;51.382;6.768;2024-02-26T01:09:35;1.50;;;1.50;;
11986;SDS011;6053;51.382;6.768;2024-02-26T01:12:07;1.88;;;1.88;;
11986;SDS011;6053;51.382;6.768;2024-02-26T01:14:36;1.65;;;1.63;;
11986;SDS011;6053;51.382;6.768;2024-02-26T01:17:04;1.58;;;1.58;;
11986;SDS011;6053;51.382;6.768;2024-02-26T01:19:35;1.50;;;1.50;;
11986;SDS011;6053;51.382;6.768;2024-02-26T01:22:04;1.60;;;1.60;;
11986;SDS011;6053;51.382;6.768;2024-02-26T01:24:32;2.08;;;2.08;;
11986;SDS011;6053;51.382;6.768;2024-02-26T01:27:02;1.73;;;1.73;;
11986;SDS011;6053;51.382;6.768;2024-02-26T01:29:36;2.00;;;1.90;;
11986;SDS011;6053;51.382;6.768;2024-02-26T01:32:05;1.90;;;1.80;;
11986;SDS011;6053;51.382;6.768;2024-02-26T01:34:33;1.80;;;1.80;;
11986;SDS011;6053;51.382;6.768;2024-02-26T01:37:03;1.83;;;1.73;;
11986;SDS011;6053;51.382;6.768;2024-02-26T01:39:31;1.83;;;1.83;;
11986;SDS011;6053;51.382;6.768;2024-02-26T01:42:07;1.90;;;1.80;;
11986;SDS011;6053;51.382;6.768;2024-02-26T01:44:36;2.10;;;2.00;;
11986;SDS011;6053;51.382;6.768;2024-02-26T01:47:09;1.90;;;1.90;;
11986;SDS011;6053;51.382;6.768;2024-02-26T01:49:40;1.70;;;1.70;;
11986;SDS011;6053;51.382;6.768;2024-02-26T01:52:12;2.20;;;2.10;;
11986;SDS011;6053;51.382;6.768;2024-02-26T01:54:40;1.90;;;1.88;;
11986;SDS011;6053;51.382;6.768;2024-02-26T01:57:11;1.90;;;1.90;;
11986;SDS011;6053;51.382;6.768;2024-02-26T01:59:41;1.60;;;1.60;;
11986;SDS011;6053;51.382;6.768;2024-02-26T02:02:12;1.75;;;1.65;;
11986;SDS011;6053;51.382;6.768;2024-02-26T02:04:43;1.80;;;1.70;;
11986;SDS011;6053;51.382;6.768;2024-02-26T02:07:34;1.80;;;1.80;;
11986;SDS011;6053;51.382;6.768;2024-02-26T02:10:04;1.52;;;1.52;;
11986;SDS011;6053;51.382;6.768;2024-02-26T02:12:35;1.80;;;1.80;;
11986;SDS011;6053;51.382;6.768;2024-02-26T02:15:12;1.70;;;1.70;;
11986;SDS011;6053;51.382;6.768;2024-02-26T02:17:41;2.08;;;1.98;;
11986;SDS011;6053;51.382;6.768;2024-02-26T02:20:14;2.00;;;1.90;;
11986;SDS011;6053;51.382;6.768;2024-02-26T02:22:46;1.80;;;1.80;;
11986;SDS011;6053;51.382;6.768;2024-02-26T02:25:14;1.77;;;1.70;;
11986;SDS011;6053;51.382;6.768;2024-02-26T02:27:43;2.00;;;2.00;;
11986;SDS011;6053;51.382;6.768;2024-02-26T02:30:24;1.73;;;1.73;;
11986;SDS011;6053;51.382;6.768;2024-02-26T02:32:59;1.88;;;1.88;;
11986;SDS011;6053;51.382;6.768;2024-02-26T02:35:31;1.70;;;1.70;;
11986;SDS011;6053;51.382;6.768;2024-02-26T02:38:01;1.83;;;1.83;;
11986;SDS011;6053;51.382;6.768;2024-02-26T02:40:30;2.00;;;2.00;;
11986;SDS011;6053;51.382;6.768;2024-02-26T02:42:59;1.75;;;1.75;;
11986;SDS011;6053;51.382;6.768;2024-02-26T02:45:50;2.08;;;1.95;;
11986;SDS011;6053;51.382;6.768;2024-02-26T02:48:18;1.77;;;1.77;;
11986;SDS011;6053;51.382;6.768;2024-02-26T02:50:50;1.77;;;1.77;;
11986;SDS011;6053;51.382;6.768;2024-02-26T02:53:20;1.88;;;1.88;;
11986;SDS011;6053;51.382;6.768;2024-02-26T02:55:48;1.70;;;1.70;;
11986;SDS011;6053;51.382;6.768;2024-02-26T02:58:16;1.60;;;1.60;;
11986;SDS011;6053;51.382;6.768;2024-02-26T03:00:51;1.65;;;1.65;;
11986;SDS011;6053;51.382;6.768;2024-02-26T03:03:30;2.00;;;1.90;;
11986;SDS011;6053;51.382;6.768;2024-02-26T03:06:02;1.90;;;1.80;;
11986;SDS011;6053;51.382;6.768;2024-02-26T03:08:38;2.03;;;1.93;;
11986;SDS011;6053;51.382;6.768;2024-02-26T03:11:12;1.45;;;1.45;;
11986;SDS011;6053;51.382;6.768;2024-02-26T03:13:45;1.90;;;1.90;;
11986;SDS011;6053;51.382;6.768;2024-02-26T03:16:34;2.10;;;2.00;;
11986;SDS011;6053;51.382;6.768;2024-02-26T03:19:05;2.00;;;1.90;;
11986;SDS011;6053;51.382;6.768;2024-02-26T03:21:34;1.80;;;1.80;;
11986;SDS011;6053;51.382;6.768;2024-02-26T03:24:14;1.80;;;1.80;;
11986;SDS011;6053;51.382;6.768;2024-02-26T03:26:43;1.58;;;1.58;;
11986;SDS011;6053;51.382;6.768;2024-02-26T03:29:11;1.73;;;1.73;;
11986;SDS011;6053;51.382;6.768;2024-02-26T03:31:40;1.80;;;1.80;;
11986;SDS011;6053;51.382;6.768;2024-02-26T03:34:28;1.95;;;1.85;;
11986;SDS011;6053;51.382;6.768;2024-02-26T03:36:57;1.90;;;1.90;;
11986;SDS011;6053;51.382;6.768;2024-02-26T03:39:29;2.00;;;2.00;;
11986;SDS011;6053;51.382;6.768;2024-02-26T03:42:03;1.85;;;1.85;;
11986;SDS011;6053;51.382;6.768;2024-02-26T03:44:35;1.80;;;1.80;;
11986;SDS011;6053;51.382;6.768;2024-02-26T03:47:06;1.80;;;1.80;;
11986;SDS011;6053;51.382;6.768;2024-02-26T03:49:34;1.83;;;1.83;;
11986;SDS011;6053;51.382;6.768;2024-02-26T03:52:09;2.22;;;2.13;;
11986;SDS011;6053;51.382;6.768;2024-02-26T03:54:39;1.80;;;1.80;;
11986;SDS011;6053;51.382;6.768;2024-02-26T03:57:07;2.00;;;1.90;;
11986;SDS011;6053;51.382;6.768;2024-02-26T03:59:36;2.00;;;2.00;;
11986;SDS011;6053;51.382;6.768;2024-02-26T04:02:06;1.83;;;1.83;;
11986;SDS011;6053;51.382;6.768;2024-02-26T04:04:37;1.90;;;1.90;;
11986;SDS011;6053;51.382;6.768;2024-02-26T04:07:05;2.10;;;2.00;;
11986;SDS011;6053;51.382;6.768;2024-02-26T04:09:41;2.03;;;2.03;;
11986;SDS011;6053;51.382;6.768;2024-02-26T04:12:10;1.98;;;1.92;;
11986;SDS011;6053;51.382;6.768;2024-02-26T04:14:38;1.90;;;1.90;;
11986;SDS011;6053;51.382;6.768;2024-02-26T04:17:07;2.08;;;2.08;;
11986;SDS011;6053;51.382;6.768;2024-02-26T04:19:35;1.80;;;1.80;;
11986;SDS011;6053;51.382;6.768;2024-02-26T04:22:09;2.10;;;2.10;;
11986;SDS011;6053;51.382;6.768;2024-02-26T04:24:38;2.03;;;1.93;;
11986;SDS011;6053;51.382;6.768;2024-02-26T04:27:16;2.30;;;2.20;;
11986;SDS011;6053;51.382;6.768;2024-02-26T04:29:45;2.13;;;2.03;;
11986;SDS011;6053;51.382;6.768;2024-02-26T04:32:15;2.10;;;2.00;;
11986;SDS011;6053;51.382;6.768;2024-02-26T04:34:50;2.10;;;2.10;;
11986;SDS011;6053;51.382;6.768;2024-02-26T04:37:20;1.93;;;1.83;;
11986;SDS011;6053;51.382;6.768;2024-02-26T04:39:58;2.00;;;1.90;;
11986;SDS011;6053;51.382;6.768;2024-02-26T04:42:34;2.05;;;1.95;;
11986;SDS011;6053;51.382;6.768;2024-02-26T04:45:03;1.85;;;1.75;;
11986;SDS011;6053;51.382;6.768;2024-02-26T04:47:33;1.88;;;1.88;;
11986;SDS011;6053;51.382;6.768;2024-02-26T04:50:16;2.10;;;2.10;;
11986;SDS011;6053;51.382;6.768;2024-02-26T04:52:57;2.00;;;2.00;;
11986;SDS011;6053;51.382;6.768;2024-02-26T04:55:25;1.83;;;1.83;;
11986;SDS011;6053;51.382;6.768;2024-02-26T04:57:54;1.98;;;1.88;;
11986;SDS011;6053;51.382;6.768;2024-02-26T05:00:26;1.80;;;1.80;;
11986;SDS011;6053;51.382;6.768;2024-02-26T05:03:00;2.05;;;1.95;;
11986;SDS011;6053;51.382;6.768;2024-02-26T05:05:37;2.10;;;2.10;;
11986;SDS011;6053;51.382;6.768;2024-02-26T05:08:05;1.55;;;1.55;;
11986;SDS011;6053;51.382;6.768;2024-02-26T05:10:37;1.90;;;1.90;;
11986;SDS011;6053;51.382;6.768;2024-02-26T05:13:16;1.83;;;1.83;;
11986;SDS011;6053;51.382;6.768;2024-02-26T05:15:44;2.25;;;2.17;;
11986;SDS011;6053;51.382;6.768;2024-02-26T05:18:15;2.33;;;2.22;;
11986;SDS011;6053;51.382;6.768;2024-02-26T05:20:44;2.10;;;2.03;;
11986;SDS011;6053;51.382;6.768;2024-02-26T05:23:14;2.10;;;2.00;;
11986;SDS011;6053;51.382;6.768;2024-02-26T05:25:48;2.27;;;2.20;;
11986;SDS011;6053;51.382;6.768;2024-02-26T05:28:18;2.40;;;2.30;;
11986;SDS011;6053;51.382;6.768;2024-02-26T05:30:47;2.03;;;2.03;;
11986;SDS011;6053;51.382;6.768;2024-02-26T05:33:28;2.00;;;1.90;;
11986;SDS011;6053;51.382;6.768;2024-02-26T05:35:57;2.13;;;2.10;;
11986;SDS011;6053;51.382;6.768;2024-02-26T05:38:33;2.00;;;1.90;;
11986;SDS011;6053;51.382;6.768;2024-02-26T05:41:10;2.10;;;2.00;;
11986;SDS011;6053;51.382;6.768;2024-02-26T05:43:40;2.10;;;1.98;;
11986;SDS011;6053;51.382;6.768;2024-02-26T05:46:16;2.10;;;2.10;;
11986;SDS011;6053;51.382;6.768;2024-02-26T05:48:49;2.30;;;2.20;;
11986;SDS011;6053;51.382;6.768;2024-02-26T05:51:18;2.47;;;2.38;;
11986;SDS011;6053;51.382;6.768;2024-02-26T05:53:50;2.00;;;1.92;;
11986;SDS011;6053;51.382;6.768;2024-02-26T05:56:21;2.40;;;2.30;;
11986;SDS011;6053;51.382;6.768;2024-02-26T05:58:54;2.45;;;2.35;;
11986;SDS011;6053;51.382;6.768;2024-02-26T06:01:22;2.13;;;2.03;;
11986;SDS011;6053;51.382;6.768;2024-02-26T06:03:52;1.93;;;1.93;;
11986;SDS011;6053;51.382;6.768;2024-02-26T06:06:20;1.80;;;1.80;;
11986;SDS011;6053;51.382;6.768;2024-02-26T06:09:06;2.50;;;2.30;;
11986;SDS011;6053;51.382;6.768;2024-02-26T06:11:34;2.50;;;2.40;;
11986;SDS011;6053;51.382;6.768;2024-02-26T06:14:06;2.55;;;2.45;;
11986;SDS011;6053;51.382;6.768;2024-02-26T06:16:39;2.40;;;2.30;;
11986;SDS011;6053;51.382;6.768;2024-02-26T06:19:07;2.07;;;2.07;;
11986;SDS011;6053;51.382;6.768;2024-02-26T06:21:39;2.05;;;2.00;;
11986;SDS011;6053;51.382;6.768;2024-02-26T06:24:07;2.40;;;2.30;;
11986;SDS011;6053;51.382;6.768;2024-02-26T06:26:36;2.25;;;2.15;;
11986;SDS011;6053;51.382;6.768;2024-02-26T06:29:14;2.10;;;1.95;;
11986;SDS011;6053;51.382;6.768;2024-02-26T06:31:48;2.53;;;2.42;;
11986;SDS011;6053;51.382;6.768;2024-02-26T06:34:17;2.40;;;2.27;;
11986;SDS011;6053;51.382;6.768;2024-02-26T06:36:46;2.10;;;2.10;;
11986;SDS011;6053;51.382;6.768;2024-02-26T06:39:17;2.70;;;2.50;;
11986;SDS011;6053;51.382;6.768;2024-02-26T06:41:57;2.42;;;2.33;;
11986;SDS011;6053;51.382;6.768;2024-02-26T06:44:31;2.33;;;2.22;;
11986;SDS011;6053;51.382;6.768;2024-02-26T06:47:00;2.15;;;2.15;;
11986;SDS011;6053;51.382;6.768;2024-02-26T06:49:35;2.58;;;2.47;;
11986;SDS011;6053;51.382;6.768;2024-02-26T06:52:06;2.25;;;2.15;;
11986;SDS011;6053;51.382;6.768;2024-02-26T06:54:34;2.60;;;2.50;;
11986;SDS011;6053;51.382;6.768;2024-02-26T06:57:02;2.53;;;2.35;;
11986;SDS011;6053;51.382;6.768;2024-02-26T06:59:33;2.40;;;2.30;;
11986;SDS011;6053;51.382;6.768;2024-02-26T07:02:01;2.38;;;2.28;;
11986;SDS011;6053;51.382;6.768;2024-02-26T07:04:38;2.47;;;2.37;;
11986;SDS011;6053;51.382;6.768;2024-02-26T07:07:07;2.30;;;2.20;;
11986;SDS011;6053;51.382;6.768;2024-02-26T07:09:46;2.20;;;2.20;;
11986;SDS011;6053;51.382;6.768;2024-02-26T07:12:16;2.20;;;2.10;;
11986;SDS011;6053;51.382;6.768;2024-02-26T07:14:50;2.60;;;2.50;;
11986;SDS011;6053;51.382;6.768;2024-02-26T07:17:21;1.95;;;1.90;;
11986;SDS011;6053;51.382;6.768;2024-02-26T07:19:56;2.28;;;2.17;;
11986;SDS011;6053;51.382;6.768;2024-02-26T07:22:24;2.10;;;2.10;;
11986;SDS011;6053;51.382;6.768;2024-02-26T07:24:55;2.53;;;2.42;;
11986;SDS011;6053;51.382;6.768;2024-02-26T07:27:24;1.90;;;1.90;;
11986;SDS011;6053;51.382;6.768;2024-02-26T07:29:59;2.13;;;2.05;;
11986;SDS011;6053;51.382;6.768;2024-02-26T07:32:28;1.77;;;1.77;;
11986;SDS011;6053;51.382;6.768;2024-02-26T07:35:05;2.20;;;2.13;;
11986;SDS011;6053;51.382;6.768;2024-02-26T07:37:33;2.05;;;2.05;;
11986;SDS011;6053;51.382;6.768;2024-02-26T07:40:02;2.92;;;2.80;;
11986;SDS011;6053;51.382;6.768;2024-02-26T07:42:34;2.20;;;2.20;;
11986;SDS011;6053;51.382;6.768;2024-02-26T07:45:13;2.40;;;2.30;;
11986;SDS011;6053;51.382;6.768;2024-02-26T07:47:48;2.45;;;2.35;;
11986;SDS011;6053;51.382;6.768;2024-02-26T07:50:17;2.33;;;2.22;;
11986;SDS011;6053;51.382;6.768;2024-02-26T07:52:46;2.30;;;2.30;;
11986;SDS011;6053;51.382;6.768;2024-02-26T07:55:23;1.90;;;1.80;;
11986;SDS011;6053;51.382;6.768;2024-02-26T07:58:01;2.50;;;2.50;;
11986;SDS011;6053;51.382;6.768;2024-02-26T08:00:33;2.70;;;2.50;;
11986;SDS011;6053;51.382;6.768;2024-02-26T08:03:04;2.50;;;2.40;;
11986;SDS011;6053;51.382;6.768;2024-02-26T08:05:33;2.65;;;2.55;;
11986;SDS011;6053;51.382;6.768;2024-02-26T08:08:09;2.63;;;2.53;;
11986;SDS011;6053;51.382;6.768;2024-02-26T08:10:37;2.55;;;2.45;;
11986;SDS011;6053;51.382;6.768;2024-02-26T08:13:08;2.35;;;2.25;;
11986;SDS011;6053;51.382;6.768;2024-02-26T08:15:38;2.60;;;2.50;;
11986;SDS011;6053;51.382;6.768;2024-02-26T08:18:09;2.42;;;2.33;;
11986;SDS011;6053;51.382;6.768;2024-02-26T08:20:38;2.53;;;2.42;;
11986;SDS011;6053;51.382;6.768;2024-02-26T08:23:08;2.13;;;2.10;;
11986;SDS011;6053;51.382;6.768;2024-02-26T08:25:36;2.30;;;2.10;;
11986;SDS011;6053;51.382;6.768;2024-02-26T08:28:05;2.28;;;2.20;;
11986;SDS011;6053;51.382;6.768;2024-02-26T08:30:34;2.60;;;2.50;;
11986;SDS011;6053;51.382;6.768;2024-02-26T08:33:16;2.60;;;2.50;;
11986;SDS011;6053;51.382;6.768;2024-02-26T08:35:54;2.35;;;2.25;;
11986;SDS011;6053;51.382;6.768;2024-02-26T08:38:32;2.10;;;2.00;;
11986;SDS011;6053;51.382;6.768;2024-02-26T08:41:02;2.70;;;2.15;;
11986;SDS011;6053;51.382;6.768;2024-02-26T08:43:36;2.15;;;2.08;;
11986;SDS011;6053;51.382;6.768;2024-02-26T08:46:08;2.53;;;2.42;;
11986;SDS011;6053;51.382;6.768;2024-02-26T08:48:38;2.60;;;2.50;;
11986;SDS011;6053;51.382;6.768;2024-02-26T08:51:10;2.15;;;2.15;;
11986;SDS011;6053;51.382;6.768;2024-02-26T08:53:39;2.40;;;2.30;;
11986;SDS011;6053;51.382;6.768;2024-02-26T08:56:10;2.10;;;2.10;;
11986;SDS011;6053;51.382;6.768;2024-02-26T08:58:47;2.42;;;2.25;;
11986;SDS011;6053;51.382;6.768;2024-02-26T09:01:20;1.98;;;1.98;;
11986;SDS011;6053;51.382;6.768;2024-02-26T09:03:57;2.50;;;2.40;;
11986;SDS011;6053;51.382;6.768;2024-02-26T09:06:25;2.10;;;2.10;;
11986;SDS011;6053;51.382;6.768;2024-02-26T09:08:57;2.33;;;2.22;;
11986;SDS011;6053;51.382;6.768;2024-02-26T09:11:27;2.50;;;2.40;;
11986;SDS011;6053;51.382;6.768;2024-02-26T09:13:58;2.40;;;2.37;;
11986;SDS011;6053;51.382;6.768;2024-02-26T09:16:30;4.33;;;2.23;;
11986;SDS011;6053;51.382;6.768;2024-02-26T09:19:05;2.90;;;2.70;;
11986;SDS011;6053;51.382;6.768;2024-02-26T09:21:42;2.10;;;2.10;;
11986;SDS011;6053;51.382;6.768;2024-02-26T09:24:16;1.88;;;1.88;;
11986;SDS011;6053;51.382;6.768;2024-02-26T09:26:45;2.15;;;2.15;;
11986;SDS011;6053;51.382;6.768;2024-02-26T09:29:13;2.55;;;2.50;;
11986;SDS011;6053;51.382;6.768;2024-02-26T09:31:41;2.10;;;2.00;;
11986;SDS011;6053;51.382;6.768;2024-02-26T09:34:15;2.80;;;2.70;;
11986;SDS011;6053;51.382;6.768;2024-02-26T09:36:43;2.10;;;2.00;;
11986;SDS011;6053;51.382;6.768;2024-02-26T09:39:12;2.50;;;2.40;;
11986;SDS011;6053;51.382;6.768;2024-02-26T09:41:54;2.60;;;2.50;;
11986;SDS011;6053;51.382;6.768;2024-02-26T09:44:26;2.40;;;2.33;;
11986;SDS011;6053;51.382;6.768;2024-02-26T09:46:56;2.95;;;2.83;;
11986;SDS011;6053;51.382;6.768;2024-02-26T09:49:35;2.63;;;2.53;;
11986;SDS011;6053;51.382;6.768;2024-02-26T09:52:04;2.60;;;2.50;;
11986;SDS011;6053;51.382;6.768;2024-02-26T09:54:36;2.13;;;2.13;;
11986;SDS011;6053;51.382;6.768;2024-02-26T09:57:09;2.80;;;2.70;;
11986;SDS011;6053;51.382;6.768;2024-02-26T09:59:42;2.50;;;2.40;;
11986;SDS011;6053;51.382;6.768;2024-02-26T10:02:12;2.53;;;2.47;;
11986;SDS011;6053;51.382;6.768;2024-02-26T10:04:50;2.35;;;2.35;;
11986;SDS011;6053;51.382;6.768;2024-02-26T10:07:22;2.08;;;1.98;;
11986;SDS011;6053;51.382;6.768;2024-02-26T10:09:59;2.20;;;2.20;;
11986;SDS011;6053;51.382;6.768;2024-02-26T10:12:31;2.40;;;2.22;;
11986;SDS011;6053;51.382;6.768;2024-02-26T10:15:00;2.05;;;2.05;;
11986;SDS011;6053;51.382;6.768;2024-02-26T10:17:28;2.53;;;2.42;;
11986;SDS011;6053;51.382;6.768;2024-02-26T10:20:04;2.10;;;2.10;;
11986;SDS011;6053;51.382;6.768;2024-02-26T10:22:44;2.72;;;2.63;;
11986;SDS011;6053;51.382;6.768;2024-02-26T10:25:13;2.28;;;2.28;;
11986;SDS011;6053;51.382;6.768;2024-02-26T10:27:41;2.00;;;2.00;;
11986;SDS011;6053;51.382;6.768;2024-02-26T10:30:15;2.33;;;2.23;;
11986;SDS011;6053;51.382;6.768;2024-02-26T10:32:46;2.53;;;2.40;;
11986;SDS011;6053;51.382;6.768;2024-02-26T10:35:17;2.22;;;2.13;;
11986;SDS011;6053;51.382;6.768;2024-02-26T10:37:49;2.10;;;2.10;;
11986;SDS011;6053;51.382;6.768;2024-02-26T10:40:18;2.08;;;2.08;;
11986;SDS011;6053;51.382;6.768;2024-02-26T10:42:47;2.67;;;2.57;;
11986;SDS011;6053;51.382;6.768;2024-02-26T10:45:18;2.60;;;2.40;;
11986;SDS011;6053;51.382;6.768;2024-02-26T10:47:47;3.00;;;2.90;;
11986;SDS011;6053;51.382;6.768;2024-02-26T10:50:19;2.80;;;2.70;;
11986;SDS011;6053;51.382;6.768;2024-02-26T10:52:48;2.22;;;2.15;;
11986;SDS011;6053;51.382;6.768;2024-02-26T10:55:18;2.15;;;2.15;;
11986;SDS011;6053;51.382;6.768;2024-02-26T10:57:50;2.22;;;2.22;;
11986;SDS011;6053;51.382;6.768;2024-02-26T11:00:21;3.50;;;3.30;;
11986;SDS011;6053;51.382;6.768;2024-02-26T11:02:56;2.72;;;2.53;;
11986;SDS011;6053;51.382;6.768;2024-02-26T11:05:32;2.13;;;2.13;;
11986;SDS011;6053;51.382;6.768;2024-02-26T11:08:12;3.07;;;2.87;;
11986;SDS011;6053;51.382;6.768;2024-02-26T11:10:44;2.80;;;2.70;;
11986;SDS011;6053;51.382;6.768;2024-02-26T11:13:17;2.90;;;2.70;;
11986;SDS011;6053;51.382;6.768;2024-02-26T11:15:47;2.28;;;2.17;;
11986;SDS011;6053;51.382;6.768;2024-02-26T11:18:17;2.42;;;2.33;;
11986;SDS011;6053;51.382;6.768;2024-02-26T11:20:49;2.85;;;2.65;;
11986;SDS011;6053;51.382;6.768;2024-02-26T11:23:21;2.17;;;2.13;;
11986;SDS011;6053;51.382;6.768;2024-02-26T11:25:55;2.90;;;2.80;;
11986;SDS011;6053;51.382;6.768;2024-02-26T11:28:26;2.40;;;2.40;;
11986;SDS011;6053;51.382;6.768;2024-02-26T11:30:59;2.67;;;2.47;;
11986;SDS011;6053;51.382;6.768;2024-02-26T11:33:30;2.67;;;2.58;;
11986;SDS011;6053;51.382;6.768;2024-02-26T11:36:04;2.38;;;2.28;;
11986;SDS011;6053;51.382;6.768;2024-02-26T11:38:45;2.07;;;2.07;;
11986;SDS011;6053;51.382;6.768;2024-02-26T11:41:33;2.33;;;2.33;;
11986;SDS011;6053;51.382;6.768;2024-02-26T11:44:10;2.50;;;2.40;;
11986;SDS011;6053;51.382;6.768;2024-02-26T11:46:39;2.80;;;2.70;;
11986;SDS011;6053;51.382;6.768;2024-02-26T11:52:10;3.13;;;2.92;;
11986;SDS011;6053;51.382;6.768;2024-02-26T11:54:43;2.42;;;2.33;;
11986;SDS011;6053;51.382;6.768;2024-02-26T11:57:22;2.70;;;2.60;;
11986;SDS011;6053;51.382;6.768;2024-02-26T11:59:56;2.60;;;2.50;;
11986;SDS011;6053;51.382;6.768;2024-02-26T12:02:43;1.98;;;1.90;;
11986;SDS011;6053;51.382;6.768;2024-02-26T12:05:14;2.95;;;2.85;;
11986;SDS011;6053;51.382;6.768;2024-02-26T12:07:48;3.08;;;2.88;;
11986;SDS011;6053;51.382;6.768;2024-02-26T12:10:24;2.40;;;2.30;;
11986;SDS011;6053;51.382;6.768;2024-02-26T12:12:59;2.75;;;2.55;;
11986;SDS011;6053;51.382;6.768;2024-02-26T12:15:35;2.63;;;2.53;;
11986;SDS011;6053;51.382;6.768;2024-02-26T12:18:08;3.00;;;2.90;;
11986;SDS011;6053;51.382;6.768;2024-02-26T12:20:38;2.75;;;2.58;;
11986;SDS011;6053;51.382;6.768;2024-02-26T12:23:15;2.72;;;2.63;;
11986;SDS011;6053;51.382;6.768;2024-02-26T12:25:44;3.03;;;2.85;;
11986;SDS011;6053;51.382;6.768;2024-02-26T12:28:14;3.05;;;2.95;;
11986;SDS011;6053;51.382;6.768;2024-02-26T12:30:43;2.78;;;2.63;;
11986;SDS011;6053;51.382;6.768;2024-02-26T12:33:15;3.03;;;2.83;;
11986;SDS011;6053;51.382;6.768;2024-02-26T12:35:46;2.70;;;2.60;;
11986;SDS011;6053;51.382;6.768;2024-02-26T12:38:18;2.83;;;2.73;;
11986;SDS011;6053;51.382;6.768;2024-02-26T12:40:50;2.40;;;2.30;;
11986;SDS011;6053;51.382;6.768;2024-02-26T12:43:22;3.03;;;2.83;;
11986;SDS011;6053;51.382;6.768;2024-02-26T12:45:50;3.27;;;3.10;;
11986;SDS011;6053;51.382;6.768;2024-02-26T12:48:19;3.78;;;3.58;;
11986;SDS011;6053;51.382;6.768;2024-02-26T12:50:48;2.50;;;2.40;;
11986;SDS011;6053;51.382;6.768;2024-02-26T12:53:16;3.25;;;3.00;;
11986;SDS011;6053;51.382;6.768;2024-02-26T12:55:47;2.58;;;2.47;;
11986;SDS011;6053;51.382;6.768;2024-02-26T12:58:15;2.90;;;2.70;;
11986;SDS011;6053;51.382;6.768;2024-02-26T13:00:46;2.90;;;2.80;;
11986;SDS011;6053;51.382;6.768;2024-02-26T13:03:15;3.25;;;3.05;;
11986;SDS011;6053;51.382;6.768;2024-02-26T13:05:50;3.25;;;3.15;;
11986;SDS011;6053;51.382;6.768;2024-02-26T13:08:20;2.83;;;2.72;;
11986;SDS011;6053;51.382;6.768;2024-02-26T13:10:49;3.55;;;3.35;;
11986;SDS011;6053;51.382;6.768;2024-02-26T13:13:18;2.87;;;2.77;;
11986;SDS011;6053;51.382;6.768;2024-02-26T13:15:47;2.63;;;2.53;;
11986;SDS011;6053;51.382;6.768;2024-02-26T13:18:15;3.70;;;3.50;;
11986;SDS011;6053;51.382;6.768;2024-02-26T13:20:46;2.75;;;2.65;;
11986;SDS011;6053;51.382;6.768;2024-02-26T13:23:15;3.08;;;2.92;;
11986;SDS011;6053;51.382;6.768;2024-02-26T13:25:48;5.60;;;3.40;;
11986;SDS011;6053;51.382;6.768;2024-02-26T13:28:24;3.25;;;3.05;;
11986;SDS011;6053;51.382;6.768;2024-02-26T13:30:55;2.97;;;2.78;;
11986;SDS011;6053;51.382;6.768;2024-02-26T13:33:36;3.03;;;2.83;;
11986;SDS011;6053;51.382;6.768;2024-02-26T13:36:05;2.20;;;2.20;;
11986;SDS011;6053;51.382;6.768;2024-02-26T13:38:35;2.95;;;2.85;;
11986;SDS011;6053;51.382;6.768;2024-02-26T13:41:13;2.42;;;2.33;;
11986;SDS011;6053;51.382;6.768;2024-02-26T13:43:48;3.10;;;3.00;;
11986;SDS011;6053;51.382;6.768;2024-02-26T13:46:35;2.75;;;2.55;;
11986;SDS011;6053;51.382;6.768;2024-02-26T13:49:03;3.08;;;2.78;;
11986;SDS011;6053;51.382;6.768;2024-02-26T13:51:31;3.00;;;2.90;;
11986;SDS011;6053;51.382;6.768;2024-02-26T13:54:08;2.65;;;2.55;;
11986;SDS011;6053;51.382;6.768;2024-02-26T13:56:38;3.15;;;2.95;;
11986;SDS011;6053;51.382;6.768;2024-02-26T13:59:13;2.85;;;2.75;;
11986;SDS011;6053;51.382;6.768;2024-02-26T14:01:41;2.88;;;2.78;;
11986;SDS011;6053;51.382;6.768;2024-02-26T14:04:12;3.40;;;3.20;;
11986;SDS011;6053;51.382;6.768;2024-02-26T14:06:41;2.78;;;2.67;;
11986;SDS011;6053;51.382;6.768;2024-02-26T14:09:09;2.90;;;2.80;;
11986;SDS011;6053;51.382;6.768;2024-02-26T14:11:42;2.70;;;2.60;;
11986;SDS011;6053;51.382;6.768;2024-02-26T14:14:10;2.93;;;2.83;;
11986;SDS011;6053;51.382;6.768;2024-02-26T14:16:39;2.60;;;2.50;;
11986;SDS011;6053;51.382;6.768;2024-02-26T14:19:10;2.47;;;2.35;;
11986;SDS011;6053;51.382;6.768;2024-02-26T14:21:41;2.80;;;2.70;;
11986;SDS011;6053;51.382;6.768;2024-02-26T14:24:13;3.03;;;2.83;;
11986;SDS011;6053;51.382;6.768;2024-02-26T14:26:43;2.88;;;2.67;;
11986;SDS011;6053;51.382;6.768;2024-02-26T14:29:12;2.42;;;2.33;;
11986;SDS011;6053;51.382;6.768;2024-02-26T14:31:42;2.80;;;2.60;;
11986;SDS011;6053;51.382;6.768;2024-02-26T14:34:13;2.30;;;2.20;;
11986;SDS011;6053;51.382;6.768;2024-02-26T14:36:44;2.70;;;2.60;;
11986;SDS011;6053;51.382;6.768;2024-02-26T14:39:13;2.70;;;2.60;;
11986;SDS011;6053;51.382;6.768;2024-02-26T14:41:43;2.80;;;2.70;;
11986;SDS011;6053;51.382;6.768;2024-02-26T14:44:14;2.65;;;2.55;;
11986;SDS011;6053;51.382;6.768;2024-02-26T14:46:43;2.55;;;2.45;;
11986;SDS011;6053;51.382;6.768;2024-02-26T14:49:14;2.40;;;2.30;;
11986;SDS011;6053;51.382;6.768;2024-02-26T14:51:42;2.38;;;2.28;;
11986;SDS011;6053;51.382;6.768;2024-02-26T14:54:11;2.30;;;2.20;;
11986;SDS011;6053;51.382;6.768;2024-02-26T14:56:40;2.83;;;2.73;;
11986;SDS011;6053;51.382;6.768;2024-02-26T14:59:10;2.65;;;2.53;;
11986;SDS011;6053;51.382;6.768;2024-02-26T15:01:41;2.47;;;2.38;;
11986;SDS011;6053;51.382;6.768;2024-02-26T15:04:18;2.50;;;2.40;;
11986;SDS011;6053;51.382;6.768;2024-02-26T15:06:47;2.40;;;2.30;;
11986;SDS011;6053;51.382;6.768;2024-02-26T15:09:18;2.90;;;2.80;;
11986;SDS011;6053;51.382;6.768;2024-02-26T15:11:47;3.00;;;2.90;;
11986;SDS011;6053;51.382;6.768;2024-02-26T15:14:17;2.80;;;2.60;;
11986;SDS011;6053;51.382;6.768;2024-02-26T15:16:45;2.50;;;2.40;;
11986;SDS011;6053;51.382;6.768;2024-02-26T15:19:22;2.40;;;2.30;;
11986;SDS011;6053;51.382;6.768;2024-02-26T15:21:49;3.03;;;2.83;;
11986;SDS011;6053;51.382;6.768;2024-02-26T15:24:16;2.70;;;2.60;;
11986;SDS011;6053;51.382;6.768;2024-02-26T15:26:55;2.60;;;2.50;;
11986;SDS011;6053;51.382;6.768;2024-02-26T15:29:25;2.40;;;2.30;;
11986;SDS011;6053;51.382;6.768;2024-02-26T15:31:58;2.58;;;2.47;;